sensor_id;sensor_type;location;lat;lon;timestamp;temperature;humidity
59307;DHT22;47983;53.016;-2.260;2022-11-23T00:01:25;4.20;99.90
59307;DHT22;47983;53.016;-2.260;2022-11-23T00:03:56;4.10;99.90
59307;DHT22;47983;53.016;-2.260;2022-11-23T00:06:24;4.10;99.90
59307;DHT22;47983;53.016;-2.260;2022-11-23T00:08:53;4.00;99.90
59307;DHT22;47983;53.016;-2.260;2022-11-23T00:11:22;4.00;99.90
59307;DHT22;47983;53.016;-2.260;2022-11-23T00:13:51;3.90;99.90
59307;DHT22;47983;53.016;-2.260;2022-11-23T00:16:24;4.00;99.90
59307;DHT22;47983;53.016;-2.260;2022-11-23T00:18:57;3.90;99.90
59307;DHT22;47983;53.016;-2.260;2022-11-23T00:21:27;3.90;99.90
59307;DHT22;47983;53.016;-2.260;2022-11-23T00:23:56;3.90;99.90
59307;DHT22;47983;53.016;-2.260;2022-11-23T00:26:25;3.80;99.90
59307;DHT22;47983;53.016;-2.260;2022-11-23T00:28:52;3.80;99.90
59307;DHT22;47983;53.016;-2.260;2022-11-23T00:31:21;3.80;99.90
59307;DHT22;47983;53.016;-2.260;2022-11-23T00:33:50;3.90;99.90
59307;DHT22;47983;53.016;-2.260;2022-11-23T00:36:19;3.90;99.90
59307;DHT22;47983;53.016;-2.260;2022-11-23T00:38:47;4.00;99.90
59307;DHT22;47983;53.016;-2.260;2022-11-23T00:41:21;4.00;99.90
59307;DHT22;47983;53.016;-2.260;2022-11-23T00:43:50;4.20;99.90
59307;DHT22;47983;53.016;-2.260;2022-11-23T00:46:19;4.20;99.90
59307;DHT22;47983;53.016;-2.260;2022-11-23T00:48:49;4.30;99.90
59307;DHT22;47983;53.016;-2.260;2022-11-23T00:51:22;4.30;99.90
59307;DHT22;47983;53.016;-2.260;2022-11-23T00:53:51;4.40;99.90
59307;DHT22;47983;53.016;-2.260;2022-11-23T00:56:19;4.50;99.90
59307;DHT22;47983;53.016;-2.260;2022-11-23T00:58:48;4.50;99.90
59307;DHT22;47983;53.016;-2.260;2022-11-23T01:01:19;4.60;99.90
59307;DHT22;47983;53.016;-2.260;2022-11-23T01:03:47;4.60;99.90
59307;DHT22;47983;53.016;-2.260;2022-11-23T01:06:21;4.80;99.90
59307;DHT22;47983;53.016;-2.260;2022-11-23T01:08:54;4.80;99.90
59307;DHT22;47983;53.016;-2.260;2022-11-23T01:11:24;4.80;99.90
59307;DHT22;47983;53.016;-2.260;2022-11-23T01:13:53;4.90;99.90
59307;DHT22;47983;53.016;-2.260;2022-11-23T01:16:24;4.90;99.90
59307;DHT22;47983;53.016;-2.260;2022-11-23T01:19:03;5.00;99.90
59307;DHT22;47983;53.016;-2.260;2022-11-23T01:21:32;4.90;99.90
59307;DHT22;47983;53.016;-2.260;2022-11-23T01:24:06;5.00;99.90
59307;DHT22;47983;53.016;-2.260;2022-11-23T01:26:38;5.00;99.90
59307;DHT22;47983;53.016;-2.260;2022-11-23T01:29:06;5.10;99.90
59307;DHT22;47983;53.016;-2.260;2022-11-23T01:31:37;5.10;99.90
59307;DHT22;47983;53.016;-2.260;2022-11-23T01:34:14;5.10;99.90
59307;DHT22;47983;53.016;-2.260;2022-11-23T01:36:43;5.10;99.90
59307;DHT22;47983;53.016;-2.260;2022-11-23T01:39:11;5.10;99.90
59307;DHT22;47983;53.016;-2.260;2022-11-23T01:41:40;5.10;99.90
59307;DHT22;47983;53.016;-2.260;2022-11-23T01:47:07;5.10;99.90
59307;DHT22;47983;53.016;-2.260;2022-11-23T01:49:41;5.10;99.90
59307;DHT22;47983;53.016;-2.260;2022-11-23T01:52:29;5.10;99.90
59307;DHT22;47983;53.016;-2.260;2022-11-23T01:54:57;5.10;99.90
59307;DHT22;47983;53.016;-2.260;2022-11-23T01:57:37;5.10;99.90
59307;DHT22;47983;53.016;-2.260;2022-11-23T02:00:07;5.10;99.90
59307;DHT22;47983;53.016;-2.260;2022-11-23T02:02:45;5.10;99.90
59307;DHT22;47983;53.016;-2.260;2022-11-23T02:05:15;5.10;99.90
59307;DHT22;47983;53.016;-2.260;2022-11-23T02:07:47;5.10;99.90
59307;DHT22;47983;53.016;-2.260;2022-11-23T02:10:16;5.10;99.90
59307;DHT22;47983;53.016;-2.260;2022-11-23T02:12:45;5.10;99.90
59307;DHT22;47983;53.016;-2.260;2022-11-23T02:15:12;5.10;99.90
59307;DHT22;47983;53.016;-2.260;2022-11-23T02:17:41;5.00;99.90
59307;DHT22;47983;53.016;-2.260;2022-11-23T02:20:13;5.00;99.90
59307;DHT22;47983;53.016;-2.260;2022-11-23T02:28:26;5.00;99.90
59307;DHT22;47983;53.016;-2.260;2022-11-23T02:30:55;5.00;99.90
59307;DHT22;47983;53.016;-2.260;2022-11-23T02:33:23;4.90;99.90
59307;DHT22;47983;53.016;-2.260;2022-11-23T02:35:54;4.90;99.90
59307;DHT22;47983;53.016;-2.260;2022-11-23T02:38:29;4.90;99.90
59307;DHT22;47983;53.016;-2.260;2022-11-23T02:40:59;4.90;99.90
59307;DHT22;47983;53.016;-2.260;2022-11-23T02:43:27;4.90;99.90
59307;DHT22;47983;53.016;-2.260;2022-11-23T02:45:55;4.90;99.90
59307;DHT22;47983;53.016;-2.260;2022-11-23T02:48:24;4.90;99.90
59307;DHT22;47983;53.016;-2.260;2022-11-23T02:50:52;4.90;99.90
59307;DHT22;47983;53.016;-2.260;2022-11-23T02:53:20;5.00;99.90
59307;DHT22;47983;53.016;-2.260;2022-11-23T02:55:47;5.10;99.90
59307;DHT22;47983;53.016;-2.260;2022-11-23T02:58:17;5.10;99.90
59307;DHT22;47983;53.016;-2.260;2022-11-23T03:00:46;5.10;99.90
59307;DHT22;47983;53.016;-2.260;2022-11-23T03:03:16;5.20;99.90
59307;DHT22;47983;53.016;-2.260;2022-11-23T03:05:44;5.20;99.90
59307;DHT22;47983;53.016;-2.260;2022-11-23T03:08:11;5.30;99.90
59307;DHT22;47983;53.016;-2.260;2022-11-23T03:10:40;5.30;99.90
59307;DHT22;47983;53.016;-2.260;2022-11-23T03:13:08;5.30;99.90
59307;DHT22;47983;53.016;-2.260;2022-11-23T03:15:38;5.40;99.90
59307;DHT22;47983;53.016;-2.260;2022-11-23T03:18:06;5.50;99.90
59307;DHT22;47983;53.016;-2.260;2022-11-23T03:20:34;5.50;99.90
59307;DHT22;47983;53.016;-2.260;2022-11-23T03:23:02;5.50;99.90
59307;DHT22;47983;53.016;-2.260;2022-11-23T03:25:30;5.60;99.90
59307;DHT22;47983;53.016;-2.260;2022-11-23T03:27:58;5.60;99.90
59307;DHT22;47983;53.016;-2.260;2022-11-23T03:30:26;5.60;99.90
59307;DHT22;47983;53.016;-2.260;2022-11-23T03:32:54;5.60;99.90
59307;DHT22;47983;53.016;-2.260;2022-11-23T03:35:23;5.70;99.90
59307;DHT22;47983;53.016;-2.260;2022-11-23T03:38:13;5.70;99.90
59307;DHT22;47983;53.016;-2.260;2022-11-23T03:40:45;5.70;99.90
59307;DHT22;47983;53.016;-2.260;2022-11-23T03:43:19;5.80;99.90
59307;DHT22;47983;53.016;-2.260;2022-11-23T03:45:47;5.70;99.90
59307;DHT22;47983;53.016;-2.260;2022-11-23T03:48:15;5.80;99.90
59307;DHT22;47983;53.016;-2.260;2022-11-23T03:50:44;5.80;99.90
59307;DHT22;47983;53.016;-2.260;2022-11-23T03:53:11;5.80;99.90
59307;DHT22;47983;53.016;-2.260;2022-11-23T03:55:39;5.80;99.90
59307;DHT22;47983;53.016;-2.260;2022-11-23T03:58:07;5.90;99.90
59307;DHT22;47983;53.016;-2.260;2022-11-23T04:00:35;5.90;99.90
59307;DHT22;47983;53.016;-2.260;2022-11-23T04:03:03;5.90;99.90
59307;DHT22;47983;53.016;-2.260;2022-11-23T04:06:09;6.00;99.90
59307;DHT22;47983;53.016;-2.260;2022-11-23T04:08:48;5.90;99.90
59307;DHT22;47983;53.016;-2.260;2022-11-23T04:11:28;5.90;99.90
59307;DHT22;47983;53.016;-2.260;2022-11-23T04:13:56;6.00;99.90
59307;DHT22;47983;53.016;-2.260;2022-11-23T04:16:24;6.00;99.90
59307;DHT22;47983;53.016;-2.260;2022-11-23T04:18:51;6.00;99.90
59307;DHT22;47983;53.016;-2.260;2022-11-23T04:21:19;6.00;99.90
59307;DHT22;47983;53.016;-2.260;2022-11-23T04:23:47;6.00;99.90
59307;DHT22;47983;53.016;-2.260;2022-11-23T04:26:15;6.00;99.90
59307;DHT22;47983;53.016;-2.260;2022-11-23T04:28:45;6.00;99.90
59307;DHT22;47983;53.016;-2.260;2022-11-23T04:31:13;6.00;99.90
59307;DHT22;47983;53.016;-2.260;2022-11-23T04:33:55;6.10;99.90
59307;DHT22;47983;53.016;-2.260;2022-11-23T04:36:25;6.10;99.90
59307;DHT22;47983;53.016;-2.260;2022-11-23T04:38:53;6.10;99.90
59307;DHT22;47983;53.016;-2.260;2022-11-23T04:41:31;6.10;99.90
59307;DHT22;47983;53.016;-2.260;2022-11-23T04:43:59;6.00;99.90
59307;DHT22;47983;53.016;-2.260;2022-11-23T04:46:27;6.00;99.90
59307;DHT22;47983;53.016;-2.260;2022-11-23T04:48:55;6.00;99.90
59307;DHT22;47983;53.016;-2.260;2022-11-23T04:51:22;6.00;99.90
59307;DHT22;47983;53.016;-2.260;2022-11-23T04:53:51;6.00;99.90
59307;DHT22;47983;53.016;-2.260;2022-11-23T04:56:19;6.00;99.90
59307;DHT22;47983;53.016;-2.260;2022-11-23T04:58:48;6.00;99.90
59307;DHT22;47983;53.016;-2.260;2022-11-23T05:01:16;6.00;99.90
59307;DHT22;47983;53.016;-2.260;2022-11-23T05:04:04;6.00;99.90
59307;DHT22;47983;53.016;-2.260;2022-11-23T05:06:31;6.00;99.90
59307;DHT22;47983;53.016;-2.260;2022-11-23T05:08:59;6.10;99.90
59307;DHT22;47983;53.016;-2.260;2022-11-23T05:11:56;6.10;99.90
59307;DHT22;47983;53.016;-2.260;2022-11-23T05:14:24;6.10;99.90
59307;DHT22;47983;53.016;-2.260;2022-11-23T05:16:52;6.10;99.90
59307;DHT22;47983;53.016;-2.260;2022-11-23T05:19:20;6.10;99.90
59307;DHT22;47983;53.016;-2.260;2022-11-23T05:21:48;6.10;99.90
59307;DHT22;47983;53.016;-2.260;2022-11-23T05:24:15;6.10;99.90
59307;DHT22;47983;53.016;-2.260;2022-11-23T05:26:55;6.10;99.90
59307;DHT22;47983;53.016;-2.260;2022-11-23T05:29:23;6.10;99.90
59307;DHT22;47983;53.016;-2.260;2022-11-23T05:31:53;6.10;99.90
59307;DHT22;47983;53.016;-2.260;2022-11-23T05:34:20;6.10;99.90
59307;DHT22;47983;53.016;-2.260;2022-11-23T05:36:49;6.10;99.90
59307;DHT22;47983;53.016;-2.260;2022-11-23T05:39:18;6.00;99.90
59307;DHT22;47983;53.016;-2.260;2022-11-23T05:41:49;6.10;99.90
59307;DHT22;47983;53.016;-2.260;2022-11-23T05:44:31;6.10;99.90
59307;DHT22;47983;53.016;-2.260;2022-11-23T05:47:00;6.20;99.90
59307;DHT22;47983;53.016;-2.260;2022-11-23T05:49:31;6.20;99.90
59307;DHT22;47983;53.016;-2.260;2022-11-23T05:52:01;6.20;99.90
59307;DHT22;47983;53.016;-2.260;2022-11-23T05:54:30;6.20;99.90
59307;DHT22;47983;53.016;-2.260;2022-11-23T05:57:15;6.20;99.90
59307;DHT22;47983;53.016;-2.260;2022-11-23T05:59:45;6.10;99.90
59307;DHT22;47983;53.016;-2.260;2022-11-23T06:02:19;6.20;99.90
59307;DHT22;47983;53.016;-2.260;2022-11-23T06:04:50;6.10;99.90
59307;DHT22;47983;53.016;-2.260;2022-11-23T06:07:26;6.10;99.90
59307;DHT22;47983;53.016;-2.260;2022-11-23T06:10:07;6.10;99.90
59307;DHT22;47983;53.016;-2.260;2022-11-23T06:12:39;6.10;99.90
59307;DHT22;47983;53.016;-2.260;2022-11-23T06:15:11;6.20;99.90
59307;DHT22;47983;53.016;-2.260;2022-11-23T06:17:40;6.10;99.90
59307;DHT22;47983;53.016;-2.260;2022-11-23T06:20:14;6.10;99.90
59307;DHT22;47983;53.016;-2.260;2022-11-23T06:22:51;6.10;99.90
59307;DHT22;47983;53.016;-2.260;2022-11-23T06:25:22;6.00;99.90
59307;DHT22;47983;53.016;-2.260;2022-11-23T06:28:02;6.00;99.90
59307;DHT22;47983;53.016;-2.260;2022-11-23T06:30:39;6.00;99.90
59307;DHT22;47983;53.016;-2.260;2022-11-23T06:33:07;6.00;99.90
59307;DHT22;47983;53.016;-2.260;2022-11-23T06:35:55;6.00;99.90
59307;DHT22;47983;53.016;-2.260;2022-11-23T06:38:26;6.00;99.90
59307;DHT22;47983;53.016;-2.260;2022-11-23T06:41:01;5.90;99.90
59307;DHT22;47983;53.016;-2.260;2022-11-23T06:43:30;5.90;99.90
59307;DHT22;47983;53.016;-2.260;2022-11-23T06:46:02;5.90;99.90
59307;DHT22;47983;53.016;-2.260;2022-11-23T06:48:32;5.90;99.90
59307;DHT22;47983;53.016;-2.260;2022-11-23T06:51:01;6.00;99.90
59307;DHT22;47983;53.016;-2.260;2022-11-23T06:53:31;5.90;99.90
59307;DHT22;47983;53.016;-2.260;2022-11-23T06:56:03;6.00;99.90
59307;DHT22;47983;53.016;-2.260;2022-11-23T06:58:31;6.00;99.90
59307;DHT22;47983;53.016;-2.260;2022-11-23T07:01:05;6.00;99.90
59307;DHT22;47983;53.016;-2.260;2022-11-23T07:03:40;6.00;99.90
59307;DHT22;47983;53.016;-2.260;2022-11-23T07:06:19;6.00;99.90
59307;DHT22;47983;53.016;-2.260;2022-11-23T07:08:48;6.00;99.90
59307;DHT22;47983;53.016;-2.260;2022-11-23T07:14:11;6.00;99.90
59307;DHT22;47983;53.016;-2.260;2022-11-23T07:16:42;6.00;99.90
59307;DHT22;47983;53.016;-2.260;2022-11-23T07:19:10;6.00;99.90
59307;DHT22;47983;53.016;-2.260;2022-11-23T07:21:37;6.10;99.90
59307;DHT22;47983;53.016;-2.260;2022-11-23T07:24:06;6.10;99.90
59307;DHT22;47983;53.016;-2.260;2022-11-23T07:26:34;6.10;99.90
59307;DHT22;47983;53.016;-2.260;2022-11-23T07:29:02;6.10;99.90
59307;DHT22;47983;53.016;-2.260;2022-11-23T07:31:30;6.10;99.90
59307;DHT22;47983;53.016;-2.260;2022-11-23T07:33:58;6.20;99.90
59307;DHT22;47983;53.016;-2.260;2022-11-23T07:36:26;6.20;99.90
59307;DHT22;47983;53.016;-2.260;2022-11-23T07:38:53;6.20;99.90
59307;DHT22;47983;53.016;-2.260;2022-11-23T07:41:22;6.20;99.90
59307;DHT22;47983;53.016;-2.260;2022-11-23T07:44:25;6.20;99.90
59307;DHT22;47983;53.016;-2.260;2022-11-23T07:46:53;6.30;99.90
59307;DHT22;47983;53.016;-2.260;2022-11-23T07:49:20;6.30;99.90
59307;DHT22;47983;53.016;-2.260;2022-11-23T07:51:50;6.40;99.90
59307;DHT22;47983;53.016;-2.260;2022-11-23T07:54:22;6.30;99.90
59307;DHT22;47983;53.016;-2.260;2022-11-23T07:56:50;6.40;99.90
59307;DHT22;47983;53.016;-2.260;2022-11-23T07:59:17;6.40;99.90
59307;DHT22;47983;53.016;-2.260;2022-11-23T08:01:45;6.50;99.90
59307;DHT22;47983;53.016;-2.260;2022-11-23T08:04:19;6.50;99.90
59307;DHT22;47983;53.016;-2.260;2022-11-23T08:06:47;6.50;99.90
59307;DHT22;47983;53.016;-2.260;2022-11-23T08:09:14;6.50;99.90
59307;DHT22;47983;53.016;-2.260;2022-11-23T08:11:42;6.50;99.90
59307;DHT22;47983;53.016;-2.260;2022-11-23T08:14:10;6.60;99.90
59307;DHT22;47983;53.016;-2.260;2022-11-23T08:16:40;6.50;99.90
59307;DHT22;47983;53.016;-2.260;2022-11-23T08:19:08;6.60;99.90
59307;DHT22;47983;53.016;-2.260;2022-11-23T08:21:35;6.60;99.90
59307;DHT22;47983;53.016;-2.260;2022-11-23T08:24:03;6.60;99.90
59307;DHT22;47983;53.016;-2.260;2022-11-23T08:26:31;6.60;99.90
59307;DHT22;47983;53.016;-2.260;2022-11-23T08:28:58;6.60;99.90
59307;DHT22;47983;53.016;-2.260;2022-11-23T08:31:26;6.70;99.90
59307;DHT22;47983;53.016;-2.260;2022-11-23T08:33:54;6.60;99.90
59307;DHT22;47983;53.016;-2.260;2022-11-23T08:36:29;6.70;99.90
59307;DHT22;47983;53.016;-2.260;2022-11-23T08:38:56;6.70;99.90
59307;DHT22;47983;53.016;-2.260;2022-11-23T08:43:52;6.70;99.90
59307;DHT22;47983;53.016;-2.260;2022-11-23T08:46:20;6.80;99.90
59307;DHT22;47983;53.016;-2.260;2022-11-23T08:48:47;6.70;99.90
59307;DHT22;47983;53.016;-2.260;2022-11-23T08:51:17;6.80;99.90
59307;DHT22;47983;53.016;-2.260;2022-11-23T08:53:49;6.70;99.90
59307;DHT22;47983;53.016;-2.260;2022-11-23T08:56:17;6.80;99.90
59307;DHT22;47983;53.016;-2.260;2022-11-23T08:58:45;6.80;99.90
59307;DHT22;47983;53.016;-2.260;2022-11-23T09:01:14;6.80;99.90
59307;DHT22;47983;53.016;-2.260;2022-11-23T09:03:43;6.80;99.90
59307;DHT22;47983;53.016;-2.260;2022-11-23T09:06:11;6.80;99.90
59307;DHT22;47983;53.016;-2.260;2022-11-23T09:08:39;6.90;99.90
59307;DHT22;47983;53.016;-2.260;2022-11-23T09:11:08;6.90;99.90
59307;DHT22;47983;53.016;-2.260;2022-11-23T09:13:37;6.90;99.90
59307;DHT22;47983;53.016;-2.260;2022-11-23T09:16:05;7.00;99.90
59307;DHT22;47983;53.016;-2.260;2022-11-23T09:18:33;7.00;99.90
59307;DHT22;47983;53.016;-2.260;2022-11-23T09:21:03;7.00;99.90
59307;DHT22;47983;53.016;-2.260;2022-11-23T09:23:32;7.00;99.90
59307;DHT22;47983;53.016;-2.260;2022-11-23T09:26:04;7.10;99.90
59307;DHT22;47983;53.016;-2.260;2022-11-23T09:28:32;7.10;99.90
59307;DHT22;47983;53.016;-2.260;2022-11-23T09:31:02;7.10;99.90
59307;DHT22;47983;53.016;-2.260;2022-11-23T09:33:30;7.30;99.90
59307;DHT22;47983;53.016;-2.260;2022-11-23T09:35:59;7.20;99.90
59307;DHT22;47983;53.016;-2.260;2022-11-23T09:38:27;7.30;99.90
59307;DHT22;47983;53.016;-2.260;2022-11-23T09:50:27;7.60;99.90
59307;DHT22;47983;53.016;-2.260;2022-11-23T09:53:03;7.70;99.90
59307;DHT22;47983;53.016;-2.260;2022-11-23T09:55:42;7.80;99.90
59307;DHT22;47983;53.016;-2.260;2022-11-23T09:58:20;7.80;99.90
59307;DHT22;47983;53.016;-2.260;2022-11-23T10:01:06;7.90;99.90
59307;DHT22;47983;53.016;-2.260;2022-11-23T10:03:39;8.00;99.90
59307;DHT22;47983;53.016;-2.260;2022-11-23T10:06:28;8.10;99.90
59307;DHT22;47983;53.016;-2.260;2022-11-23T10:12:32;8.20;99.90
59307;DHT22;47983;53.016;-2.260;2022-11-23T10:15:14;8.30;99.90
59307;DHT22;47983;53.016;-2.260;2022-11-23T10:18:04;8.40;99.90
59307;DHT22;47983;53.016;-2.260;2022-11-23T10:20:55;8.40;99.90
59307;DHT22;47983;53.016;-2.260;2022-11-23T10:23:54;8.50;99.90
59307;DHT22;47983;53.016;-2.260;2022-11-23T10:26:37;8.50;99.90
59307;DHT22;47983;53.016;-2.260;2022-11-23T10:31:52;8.50;99.90
59307;DHT22;47983;53.016;-2.260;2022-11-23T10:37:22;8.60;99.90
59307;DHT22;47983;53.016;-2.260;2022-11-23T10:39:50;8.70;99.90
59307;DHT22;47983;53.016;-2.260;2022-11-23T10:42:40;8.60;99.90
59307;DHT22;47983;53.016;-2.260;2022-11-23T10:45:20;8.80;99.90
59307;DHT22;47983;53.016;-2.260;2022-11-23T10:47:53;8.80;99.90
59307;DHT22;47983;53.016;-2.260;2022-11-23T10:50:29;8.90;99.90
59307;DHT22;47983;53.016;-2.260;2022-11-23T10:53:12;9.00;99.90
59307;DHT22;47983;53.016;-2.260;2022-11-23T10:55:49;9.10;99.90
59307;DHT22;47983;53.016;-2.260;2022-11-23T11:00:59;9.30;99.90
59307;DHT22;47983;53.016;-2.260;2022-11-23T11:03:31;9.40;99.90
59307;DHT22;47983;53.016;-2.260;2022-11-23T11:06:00;9.50;99.90
59307;DHT22;47983;53.016;-2.260;2022-11-23T11:08:57;9.80;99.90
59307;DHT22;47983;53.016;-2.260;2022-11-23T11:11:32;9.80;99.90
59307;DHT22;47983;53.016;-2.260;2022-11-23T11:16:35;10.30;99.90
59307;DHT22;47983;53.016;-2.260;2022-11-23T11:21:49;10.40;99.90
59307;DHT22;47983;53.016;-2.260;2022-11-23T11:24:30;10.60;99.90
59307;DHT22;47983;53.016;-2.260;2022-11-23T11:27:02;10.70;99.90
59307;DHT22;47983;53.016;-2.260;2022-11-23T11:29:37;10.90;99.90
59307;DHT22;47983;53.016;-2.260;2022-11-23T11:32:22;11.10;99.90
59307;DHT22;47983;53.016;-2.260;2022-11-23T11:37:58;11.70;99.90
59307;DHT22;47983;53.016;-2.260;2022-11-23T11:46:20;12.10;99.90
59307;DHT22;47983;53.016;-2.260;2022-11-23T11:49:06;12.40;99.90
59307;DHT22;47983;53.016;-2.260;2022-11-23T11:51:46;12.60;99.90
59307;DHT22;47983;53.016;-2.260;2022-11-23T12:00:01;13.00;99.90
59307;DHT22;47983;53.016;-2.260;2022-11-23T12:07:59;13.20;99.90
59307;DHT22;47983;53.016;-2.260;2022-11-23T12:10:40;13.50;99.90
59307;DHT22;47983;53.016;-2.260;2022-11-23T12:13:34;13.50;99.90
59307;DHT22;47983;53.016;-2.260;2022-11-23T12:26:52;12.10;99.90
59307;DHT22;47983;53.016;-2.260;2022-11-23T12:29:37;12.00;99.90
59307;DHT22;47983;53.016;-2.260;2022-11-23T12:38:12;12.20;99.90
59307;DHT22;47983;53.016;-2.260;2022-11-23T12:51:58;12.00;99.90
59307;DHT22;47983;53.016;-2.260;2022-11-23T12:54:37;11.80;99.90
59307;DHT22;47983;53.016;-2.260;2022-11-23T12:57:21;11.60;99.90
59307;DHT22;47983;53.016;-2.260;2022-11-23T13:00:06;11.40;99.90
59307;DHT22;47983;53.016;-2.260;2022-11-23T13:08:48;10.40;99.90
59307;DHT22;47983;53.016;-2.260;2022-11-23T13:16:36;8.80;99.90
59307;DHT22;47983;53.016;-2.260;2022-11-23T13:21:52;8.50;99.90
59307;DHT22;47983;53.016;-2.260;2022-11-23T13:24:31;8.30;99.90
59307;DHT22;47983;53.016;-2.260;2022-11-23T13:40:44;7.90;99.90
59307;DHT22;47983;53.016;-2.260;2022-11-23T13:45:42;7.90;99.90
59307;DHT22;47983;53.016;-2.260;2022-11-23T13:51:01;8.10;99.90
59307;DHT22;47983;53.016;-2.260;2022-11-23T13:56:25;8.20;99.90
59307;DHT22;47983;53.016;-2.260;2022-11-23T14:01:59;8.20;99.90
59307;DHT22;47983;53.016;-2.260;2022-11-23T14:04:31;8.10;99.90
59307;DHT22;47983;53.016;-2.260;2022-11-23T14:09:38;8.10;99.90
59307;DHT22;47983;53.016;-2.260;2022-11-23T14:20:18;8.30;99.90
59307;DHT22;47983;53.016;-2.260;2022-11-23T14:34:18;8.20;99.90
59307;DHT22;47983;53.016;-2.260;2022-11-23T14:36:51;8.10;99.90
59307;DHT22;47983;53.016;-2.260;2022-11-23T14:42:00;8.10;99.90
59307;DHT22;47983;53.016;-2.260;2022-11-23T14:44:29;8.10;99.90
59307;DHT22;47983;53.016;-2.260;2022-11-23T14:47:06;8.10;99.90
59307;DHT22;47983;53.016;-2.260;2022-11-23T14:49:35;8.20;99.90
59307;DHT22;47983;53.016;-2.260;2022-11-23T14:52:04;8.30;99.90
59307;DHT22;47983;53.016;-2.260;2022-11-23T14:54:32;8.30;99.90
59307;DHT22;47983;53.016;-2.260;2022-11-23T14:57:03;8.30;99.90
59307;DHT22;47983;53.016;-2.260;2022-11-23T14:59:38;8.30;99.90
59307;DHT22;47983;53.016;-2.260;2022-11-23T15:02:33;8.30;99.90
59307;DHT22;47983;53.016;-2.260;2022-11-23T15:05:18;8.20;99.90
59307;DHT22;47983;53.016;-2.260;2022-11-23T15:07:49;8.20;99.90
59307;DHT22;47983;53.016;-2.260;2022-11-23T15:13:43;8.00;99.90
59307;DHT22;47983;53.016;-2.260;2022-11-23T15:16:14;8.00;99.90
59307;DHT22;47983;53.016;-2.260;2022-11-23T15:23:44;7.80;99.90
59307;DHT22;47983;53.016;-2.260;2022-11-23T15:26:18;7.70;99.90
59307;DHT22;47983;53.016;-2.260;2022-11-23T15:29:30;7.60;99.90
59307;DHT22;47983;53.016;-2.260;2022-11-23T15:31:58;7.60;99.90
59307;DHT22;47983;53.016;-2.260;2022-11-23T15:34:46;7.50;99.90
59307;DHT22;47983;53.016;-2.260;2022-11-23T15:37:16;7.50;99.90
59307;DHT22;47983;53.016;-2.260;2022-11-23T15:39:45;7.50;99.90
59307;DHT22;47983;53.016;-2.260;2022-11-23T15:42:16;7.40;99.90
59307;DHT22;47983;53.016;-2.260;2022-11-23T15:44:44;7.50;99.90
59307;DHT22;47983;53.016;-2.260;2022-11-23T15:47:22;7.40;99.90
59307;DHT22;47983;53.016;-2.260;2022-11-23T15:50:01;7.40;99.90
59307;DHT22;47983;53.016;-2.260;2022-11-23T15:52:33;7.40;99.90
59307;DHT22;47983;53.016;-2.260;2022-11-23T15:55:07;7.40;99.90
59307;DHT22;47983;53.016;-2.260;2022-11-23T15:57:39;7.50;99.90
59307;DHT22;47983;53.016;-2.260;2022-11-23T16:00:08;7.50;99.90
59307;DHT22;47983;53.016;-2.260;2022-11-23T16:02:47;7.40;99.90
59307;DHT22;47983;53.016;-2.260;2022-11-23T16:05:22;7.40;99.90
59307;DHT22;47983;53.016;-2.260;2022-11-23T16:07:54;7.40;99.90
59307;DHT22;47983;53.016;-2.260;2022-11-23T16:10:32;7.30;99.90
59307;DHT22;47983;53.016;-2.260;2022-11-23T16:13:01;7.30;99.90
59307;DHT22;47983;53.016;-2.260;2022-11-23T16:15:38;7.30;99.90
59307;DHT22;47983;53.016;-2.260;2022-11-23T16:18:25;7.20;99.90
59307;DHT22;47983;53.016;-2.260;2022-11-23T16:20:59;7.20;99.90
59307;DHT22;47983;53.016;-2.260;2022-11-23T16:23:48;7.20;99.90
59307;DHT22;47983;53.016;-2.260;2022-11-23T16:26:17;7.20;99.90
59307;DHT22;47983;53.016;-2.260;2022-11-23T16:28:56;7.20;99.90
59307;DHT22;47983;53.016;-2.260;2022-11-23T16:31:29;7.30;99.90
59307;DHT22;47983;53.016;-2.260;2022-11-23T16:33:57;7.30;99.90
59307;DHT22;47983;53.016;-2.260;2022-11-23T16:36:28;7.20;99.90
59307;DHT22;47983;53.016;-2.260;2022-11-23T16:38:55;7.20;99.90
59307;DHT22;47983;53.016;-2.260;2022-11-23T16:41:30;7.20;99.90
59307;DHT22;47983;53.016;-2.260;2022-11-23T16:43:58;7.30;99.90
59307;DHT22;47983;53.016;-2.260;2022-11-23T16:46:25;7.30;99.90
59307;DHT22;47983;53.016;-2.260;2022-11-23T16:48:54;7.20;99.90
59307;DHT22;47983;53.016;-2.260;2022-11-23T16:51:23;7.20;99.90
59307;DHT22;47983;53.016;-2.260;2022-11-23T16:53:52;7.20;99.90
59307;DHT22;47983;53.016;-2.260;2022-11-23T16:56:40;7.20;99.90
59307;DHT22;47983;53.016;-2.260;2022-11-23T16:59:14;7.10;99.90
59307;DHT22;47983;53.016;-2.260;2022-11-23T17:01:45;7.10;99.90
59307;DHT22;47983;53.016;-2.260;2022-11-23T17:04:19;7.10;99.90
59307;DHT22;47983;53.016;-2.260;2022-11-23T17:06:46;7.00;99.90
59307;DHT22;47983;53.016;-2.260;2022-11-23T17:09:14;7.00;99.90
59307;DHT22;47983;53.016;-2.260;2022-11-23T17:11:44;7.00;99.90
59307;DHT22;47983;53.016;-2.260;2022-11-23T17:14:13;7.00;99.90
59307;DHT22;47983;53.016;-2.260;2022-11-23T17:16:46;7.00;99.90
59307;DHT22;47983;53.016;-2.260;2022-11-23T17:19:20;7.00;99.90
59307;DHT22;47983;53.016;-2.260;2022-11-23T17:21:49;7.00;99.90
59307;DHT22;47983;53.016;-2.260;2022-11-23T17:24:17;7.00;99.90
59307;DHT22;47983;53.016;-2.260;2022-11-23T17:26:47;7.00;99.90
59307;DHT22;47983;53.016;-2.260;2022-11-23T17:29:19;7.00;99.90
59307;DHT22;47983;53.016;-2.260;2022-11-23T17:31:49;6.90;99.90
59307;DHT22;47983;53.016;-2.260;2022-11-23T17:34:19;7.00;99.90
59307;DHT22;47983;53.016;-2.260;2022-11-23T17:36:48;7.00;99.90
59307;DHT22;47983;53.016;-2.260;2022-11-23T17:39:24;7.00;99.90
59307;DHT22;47983;53.016;-2.260;2022-11-23T17:41:52;6.90;99.90
59307;DHT22;47983;53.016;-2.260;2022-11-23T17:44:19;6.90;99.90
59307;DHT22;47983;53.016;-2.260;2022-11-23T17:46:49;6.90;99.90
59307;DHT22;47983;53.016;-2.260;2022-11-23T17:49:18;6.90;99.90
59307;DHT22;47983;53.016;-2.260;2022-11-23T17:51:46;6.90;99.90
59307;DHT22;47983;53.016;-2.260;2022-11-23T17:54:14;6.90;99.90
59307;DHT22;47983;53.016;-2.260;2022-11-23T17:56:41;6.90;99.90
59307;DHT22;47983;53.016;-2.260;2022-11-23T17:59:12;6.90;99.90
59307;DHT22;47983;53.016;-2.260;2022-11-23T18:01:40;7.00;99.90
59307;DHT22;47983;53.016;-2.260;2022-11-23T18:04:08;7.00;99.90
59307;DHT22;47983;53.016;-2.260;2022-11-23T18:06:36;7.10;99.90
59307;DHT22;47983;53.016;-2.260;2022-11-23T18:09:03;7.10;99.90
59307;DHT22;47983;53.016;-2.260;2022-11-23T18:11:31;7.10;99.90
59307;DHT22;47983;53.016;-2.260;2022-11-23T18:13:59;7.00;99.90
59307;DHT22;47983;53.016;-2.260;2022-11-23T18:16:27;7.10;99.90
59307;DHT22;47983;53.016;-2.260;2022-11-23T18:18:55;7.00;99.90
59307;DHT22;47983;53.016;-2.260;2022-11-23T18:21:23;7.00;99.90
59307;DHT22;47983;53.016;-2.260;2022-11-23T18:23:50;6.90;99.90
59307;DHT22;47983;53.016;-2.260;2022-11-23T18:26:20;6.90;99.90
59307;DHT22;47983;53.016;-2.260;2022-11-23T18:28:48;6.90;99.90
59307;DHT22;47983;53.016;-2.260;2022-11-23T18:31:16;7.00;99.90
59307;DHT22;47983;53.016;-2.260;2022-11-23T18:33:45;7.00;99.90
59307;DHT22;47983;53.016;-2.260;2022-11-23T18:36:13;7.10;99.90
59307;DHT22;47983;53.016;-2.260;2022-11-23T18:38:41;7.10;99.90
59307;DHT22;47983;53.016;-2.260;2022-11-23T18:41:12;7.20;99.90